Time;durP1;ratioP1;P1;durP2;ratioP2;P2;SDS_P1;SDS_P2;PMS_P1;PMS_P2;Temp;Humidity;BMP_temperature;BMP_pressure;BME280_temperature;BME280_humidity;BME280_pressure;Samples;Min_cycle;Max_cycle;Signal;HPM_P1;HPM_P2
2023/11/26 00:00:12;;;;;;;4.60;2.87;;;;;;;;;;5018414;28;20053;-47
2023/11/26 00:03:00;;;;;;;6.53;3.10;;;;;;;;;;5018123;28;20080;-48
2023/11/26 00:05:54;;;;;;;6.07;3.00;;;;;;;;;;5017313;28;20455;-48
2023/11/26 00:08:41;;;;;;;4.60;2.80;;;;;;;;;;5016549;28;20131;-49
2023/11/26 00:11:35;;;;;;;5.30;2.63;;;;;;;;;;5017338;28;20075;-60
2023/11/26 00:14:22;;;;;;;6.60;3.13;;;;;;;;;;5019043;28;20053;-60
2023/11/26 00:17:18;;;;;;;4.67;3.17;;;;;;;;;;5018955;28;20478;-59
2023/11/26 00:19:54;;;;;;;5.70;3.00;;;;;;;;;;5018249;28;20092;-60
2023/11/26 00:22:26;;;;;;;5.77;2.87;;;;;;;;;;5016380;28;20046;-58
2023/11/26 00:25:00;;;;;;;6.93;3.67;;;;;;;;;;5013894;28;20053;-65
2023/11/26 00:27:28;;;;;;;6.60;2.60;;;;;;;;;;5019170;28;20061;-65
2023/11/26 00:29:55;;;;;;;;;;;;;;;;;;5017227;28;20080;-65
2023/11/26 00:32:29;;;;;;;5.80;2.57;;;;;;;;;;5014684;28;20426;-64
2023/11/26 00:34:59;;;;;;;5.90;2.90;;;;;;;;;;5020112;28;20902;-64
2023/11/26 00:37:33;;;;;;;5.50;2.97;;;;;;;;;;5021181;28;20052;-64
2023/11/26 00:40:00;;;;;;;;;;;;;;;;;;5018582;28;20076;-57
2023/11/26 00:42:27;;;;;;;4.53;2.80;;;;;;;;;;5015298;28;19955;-56
2023/11/26 00:45:01;;;;;;;7.70;2.93;;;;;;;;;;5017755;28;20103;-57
2023/11/26 00:47:41;;;;;;;4.80;2.80;;;;;;;;;;5015653;28;20068;-56
2023/11/26 00:50:17;;;;;;;6.95;2.97;;;;;;;;;;5017323;28;20778;-65
2023/11/26 00:52:45;;;;;;;9.10;3.13;;;;;;;;;;5017368;28;22283;-50
2023/11/26 00:55:13;;;;;;;4.90;2.63;;;;;;;;;;5017335;28;20057;-50
2023/11/26 00:57:47;;;;;;;5.63;2.87;;;;;;;;;;5019191;28;20057;-54
2023/11/26 01:00:14;;;;;;;5.87;2.87;;;;;;;;;;5014425;28;20084;-53
2023/11/26 01:02:48;;;;;;;5.63;2.83;;;;;;;;;;5017290;28;20116;-46
2023/11/26 01:05:15;;;;;;;5.00;3.00;;;;;;;;;;5018874;28;20053;-48
2023/11/26 01:07:42;;;;;;;7.20;3.00;;;;;;;;;;5019189;28;20057;-52
2023/11/26 01:10:17;;;;;;;7.33;3.33;;;;;;;;;;5017783;28;20061;-48
2023/11/26 01:12:44;;;;;;;7.43;2.93;;;;;;;;;;5018212;28;20061;-48
2023/11/26 01:15:11;;;;;;;;;;;;;;;;;;5017522;28;20057;-49
2023/11/26 01:17:45;;;;;;;5.17;3.00;;;;;;;;;;5016647;28;19967;-68
2023/11/26 01:20:12;;;;;;;4.33;2.93;;;;;;;;;;5014602;28;20064;-53
2023/11/26 01:22:47;;;;;;;12.33;2.87;;;;;;;;;;5018154;28;20057;-54
2023/11/26 01:25:14;;;;;;;4.13;2.87;;;;;;;;;;5000674;28;20061;-55
2023/11/26 01:27:41;;;;;;;7.73;2.97;;;;;;;;;;5020044;28;20111;-56
2023/11/26 01:30:16;;;;;;;5.23;2.83;;;;;;;;;;5016241;28;20492;-56
2023/11/26 01:32:43;;;;;;;4.97;3.30;;;;;;;;;;5014563;28;20667;-53
2023/11/26 01:35:10;;;;;;;;;;;;;;;;;;5018508;28;20049;-67
2023/11/26 01:37:44;;;;;;;7.30;2.90;;;;;;;;;;5017673;28;19968;-66
2023/11/26 01:40:11;;;;;;;5.83;2.63;;;;;;;;;;5017213;28;20131;-66
2023/11/26 01:42:46;;;;;;;4.83;2.70;;;;;;;;;;5016725;28;20053;-65
2023/11/26 01:45:13;;;;;;;5.47;3.10;;;;;;;;;;5014884;28;21470;-59
2023/11/26 01:47:40;;;;;;;;;;;;;;;;;;5014957;28;20058;-46
2023/11/26 01:50:22;;;;;;;5.07;2.87;;;;;;;;;;5016845;28;19936;-51
2023/11/26 01:52:50;;;;;;;5.20;3.00;;;;;;;;;;5013845;28;21044;-47
2023/11/26 01:55:24;;;;;;;4.43;2.80;;;;;;;;;;5013900;28;20496;-46
2023/11/26 01:57:58;;;;;;;3.97;2.63;;;;;;;;;;5014061;28;20050;-47
2023/11/26 02:00:32;;;;;;;8.17;3.27;;;;;;;;;;5015416;28;20053;-50
2023/11/26 02:02:59;;;;;;;8.23;2.73;;;;;;;;;;5015606;28;20052;-51
2023/11/26 02:05:27;;;;;;;4.60;2.70;;;;;;;;;;5018844;28;20081;-66
2023/11/26 02:08:01;;;;;;;5.87;2.53;;;;;;;;;;5017121;28;20160;-67
2023/11/26 02:10:28;;;;;;;6.93;2.90;;;;;;;;;;5013001;28;20063;-66
2023/11/26 02:13:05;;;;;;;5.70;2.63;;;;;;;;;;5018192;28;20566;-67
2023/11/26 02:15:36;;;;;;;4.00;2.47;;;;;;;;;;5016453;28;20092;-59
2023/11/26 02:18:10;;;;;;;4.63;2.67;;;;;;;;;;5017880;28;20140;-59
2023/11/26 02:20:38;;;;;;;4.90;2.87;;;;;;;;;;5013139;28;20169;-59
2023/11/26 02:23:06;;;;;;;4.17;2.70;;;;;;;;;;5017861;28;20061;-59
2023/11/26 02:25:40;;;;;;;10.17;2.87;;;;;;;;;;5015319;28;20064;-59
2023/11/26 02:28:07;;;;;;;4.73;2.70;;;;;;;;;;5017337;28;20050;-58
2023/11/26 02:30:35;;;;;;;4.43;2.87;;;;;;;;;;5016229;28;20732;-60
2023/11/26 02:33:09;;;;;;;6.20;2.67;;;;;;;;;;5017430;28;20053;-64
2023/11/26 02:35:36;;;;;;;4.77;3.00;;;;;;;;;;5016820;28;20049;-65
2023/11/26 02:38:10;;;;;;;3.87;2.57;;;;;;;;;;5018185;28;20143;-66
2023/11/26 02:40:37;;;;;;;4.93;2.67;;;;;;;;;;5015178;28;20770;-65
2023/11/26 02:43:11;;;;;;;4.33;3.03;;;;;;;;;;5018881;28;20416;-50
2023/11/26 02:45:38;;;;;;;5.60;2.60;;;;;;;;;;5018898;28;20061;-60
2023/11/26 02:48:08;;;;;;;3.73;2.93;;;;;;;;;;5028480;28;20199;-59
2023/11/26 02:50:48;;;;;;;5.40;2.40;;;;;;;;;;5017959;28;20049;-59
2023/11/26 02:53:16;;;;;;;7.47;3.10;;;;;;;;;;5021818;28;20056;-59
2023/11/26 02:55:50;;;;;;;4.13;2.50;;;;;;;;;;5017055;28;20054;-59
2023/11/26 02:58:17;;;;;;;4.30;2.70;;;;;;;;;;5021949;28;20053;-59
2023/11/26 03:00:44;;;;;;;;;;;;;;;;;;5019764;28;20131;-59
2023/11/26 03:03:19;;;;;;;3.93;2.47;;;;;;;;;;5010765;28;20367;-60
2023/11/26 03:05:50;;;;;;;4.93;2.97;;;;;;;;;;5019380;28;20132;-59
2023/11/26 03:08:32;;;;;;;4.25;2.50;;;;;;;;;;5020827;28;20103;-58
2023/11/26 03:13:52;;;;;;;5.83;2.50;;;;;;;;;;5021434;28;20103;-58
2023/11/26 03:16:19;;;;;;;4.27;2.50;;;;;;;;;;5021959;28;20919;-59
2023/11/26 03:18:54;;;;;;;6.37;3.10;;;;;;;;;;5022093;28;20509;-57
2023/11/26 03:21:26;;;;;;;5.30;2.87;;;;;;;;;;5022118;28;20393;-60
2023/11/26 03:24:01;;;;;;;6.93;3.30;;;;;;;;;;5021635;28;20061;-59
2023/11/26 03:26:29;;;;;;;5.70;2.80;;;;;;;;;;5022000;28;20480;-58
2023/11/26 03:28:56;;;;;;;5.60;3.17;;;;;;;;;;5022102;28;20054;-66
2023/11/26 03:31:30;;;;;;;3.50;2.40;;;;;;;;;;5021191;28;20154;-66
2023/11/26 03:33:58;;;;;;;5.37;2.83;;;;;;;;;;5023295;28;20354;-66
2023/11/26 03:36:32;;;;;;;4.43;2.47;;;;;;;;;;5021058;28;20053;-66
2023/11/26 03:38:59;;;;;;;3.93;2.80;;;;;;;;;;5019114;28;20053;-65
2023/11/26 03:41:26;;;;;;;4.70;2.57;;;;;;;;;;5021109;28;20060;-67
2023/11/26 03:44:00;;;;;;;4.67;2.60;;;;;;;;;;5021987;28;21119;-55
2023/11/26 03:46:29;;;;;;;4.03;2.50;;;;;;;;;;5022034;28;20072;-52
2023/11/26 03:49:10;;;;;;;4.63;2.37;;;;;;;;;;5019081;28;20064;-54
2023/11/26 03:51:38;;;;;;;5.13;2.67;;;;;;;;;;5017359;28;20358;-50
2023/11/26 03:54:12;;;;;;;7.60;2.70;;;;;;;;;;5015269;28;20123;-54
2023/11/26 03:56:39;;;;;;;5.77;2.73;;;;;;;;;;5019956;28;20053;-52
2023/11/26 03:59:06;;;;;;;4.53;2.43;;;;;;;;;;5019879;28;20056;-65
2023/11/26 04:01:41;;;;;;;5.07;2.77;;;;;;;;;;5019595;28;20057;-66
2023/11/26 04:04:09;;;;;;;6.17;3.17;;;;;;;;;;5035295;28;20045;-65
2023/11/26 04:06:43;;;;;;;5.70;2.83;;;;;;;;;;5016939;28;20053;-65
2023/11/26 04:09:10;;;;;;;5.83;2.73;;;;;;;;;;5017505;28;20057;-63
2023/11/26 04:11:44;;;;;;;4.70;2.57;;;;;;;;;;5021756;28;20061;-60
2023/11/26 04:14:12;;;;;;;8.10;2.43;;;;;;;;;;5022414;28;20115;-60
2023/11/26 04:16:48;;;;;;;4.90;2.97;;;;;;;;;;5017489;28;20053;-59
2023/11/26 04:19:22;;;;;;;4.83;2.80;;;;;;;;;;5019621;28;20097;-59
2023/11/26 04:21:49;;;;;;;8.70;2.43;;;;;;;;;;5020585;28;20455;-59
2023/11/26 04:24:24;;;;;;;5.00;2.30;;;;;;;;;;5018727;28;20107;-59
2023/11/26 04:26:52;;;;;;;3.00;2.20;;;;;;;;;;5020217;28;20123;-53
2023/11/26 04:29:26;;;;;;;3.33;2.37;;;;;;;;;;5018602;28;20512;-53
2023/11/26 04:31:53;;;;;;;6.13;2.50;;;;;;;;;;5017615;28;20153;-51
2023/11/26 04:34:20;;;;;;;5.07;2.60;;;;;;;;;;5019349;28;20492;-56
2023/11/26 04:36:56;;;;;;;5.87;2.40;;;;;;;;;;5017768;28;20111;-66
2023/11/26 04:39:24;;;;;;;4.70;2.27;;;;;;;;;;5015881;28;21508;-58
2023/11/26 04:41:52;;;;;;;3.63;2.50;;;;;;;;;;5016254;28;20405;-59
2023/11/26 04:44:26;;;;;;;4.20;2.40;;;;;;;;;;5021134;28;20069;-57
2023/11/26 04:46:54;;;;;;;3.63;2.50;;;;;;;;;;5013982;28;20056;-59
2023/11/26 04:49:34;;;;;;;5.77;2.70;;;;;;;;;;5017068;28;20056;-59
2023/11/26 04:52:02;;;;;;;3.00;2.03;;;;;;;;;;5018864;28;20045;-59
2023/11/26 04:54:37;;;;;;;5.53;2.80;;;;;;;;;;5017636;28;20049;-59
2023/11/26 04:57:04;;;;;;;4.50;2.57;;;;;;;;;;5016290;28;20069;-59
2023/11/26 04:59:32;;;;;;;4.07;2.33;;;;;;;;;;5019793;28;20053;-59
2023/11/26 05:02:09;;;;;;;3.70;2.10;;;;;;;;;;5018318;28;20670;-59
2023/11/26 05:04:37;;;;;;;4.03;2.50;;;;;;;;;;5018284;28;20145;-55
2023/11/26 05:07:12;;;;;;;4.20;2.43;;;;;;;;;;5018982;28;20049;-65
2023/11/26 05:09:40;;;;;;;4.50;2.20;;;;;;;;;;5013765;28;20510;-60
2023/11/26 05:12:07;;;;;;;3.17;2.30;;;;;;;;;;5018841;28;20135;-60
2023/11/26 05:14:43;;;;;;;5.30;2.37;;;;;;;;;;5031065;28;20116;-60
2023/11/26 05:17:10;;;;;;;3.70;2.10;;;;;;;;;;5018756;28;20062;-60
2023/11/26 05:19:45;;;;;;;5.33;1.90;;;;;;;;;;5016732;28;20064;-59
2023/11/26 05:22:12;;;;;;;5.83;2.43;;;;;;;;;;5016744;28;20053;-59
2023/11/26 05:24:41;;;;;;;;;;;;;;;;;;5018258;28;20582;-60
2023/11/26 05:27:15;;;;;;;5.40;2.57;;;;;;;;;;5020662;28;19975;-59
2023/11/26 05:29:42;;;;;;;3.60;2.30;;;;;;;;;;5022444;28;20057;-60
2023/11/26 05:32:10;;;;;;;4.40;2.43;;;;;;;;;;5014537;28;20190;-59
2023/11/26 05:34:44;;;;;;;3.77;2.07;;;;;;;;;;5020520;28;20064;-66
2023/11/26 05:37:11;;;;;;;4.57;2.10;;;;;;;;;;5019194;28;20480;-53
2023/11/26 05:39:45;;;;;;;3.83;2.33;;;;;;;;;;5018152;28;20054;-48
2023/11/26 05:42:14;;;;;;;2.73;2.20;;;;;;;;;;5016987;28;20073;-48
2023/11/26 05:44:41;;;;;;;4.40;2.47;;;;;;;;;;5018503;28;20499;-46
2023/11/26 05:47:15;;;;;;;5.37;2.37;;;;;;;;;;5020476;28;20550;-48
2023/11/26 05:49:48;;;;;;;4.57;2.30;;;;;;;;;;5032558;28;20075;-49
2023/11/26 05:52:22;;;;;;;3.70;2.10;;;;;;;;;;5017947;28;20057;-65
2023/11/26 05:54:49;;;;;;;3.17;2.13;;;;;;;;;;5016127;28;20076;-66
2023/11/26 05:57:17;;;;;;;5.87;2.30;;;;;;;;;;5020038;28;20423;-66
2023/11/26 05:59:51;;;;;;;6.17;2.67;;;;;;;;;;5019724;28;20429;-66
2023/11/26 06:02:18;;;;;;;6.80;2.70;;;;;;;;;;5020615;28;20053;-49
2023/11/26 06:04:52;;;;;;;2.93;1.90;;;;;;;;;;5019592;28;20155;-59
2023/11/26 06:07:19;;;;;;;3.70;2.40;;;;;;;;;;5017679;28;20179;-60
2023/11/26 06:09:46;;;;;;;;;;;;;;;;;;5019154;28;20072;-59
2023/11/26 06:12:20;;;;;;;2.63;1.87;;;;;;;;;;5018777;28;20109;-59
2023/11/26 06:14:47;;;;;;;3.13;1.90;;;;;;;;;;5020243;28;20052;-57
2023/11/26 06:17:15;;;;;;;4.47;2.37;;;;;;;;;;5018963;28;20463;-59
2023/11/26 06:19:49;;;;;;;4.67;2.30;;;;;;;;;;5017387;28;20509;-66
2023/11/26 06:22:16;;;;;;;4.53;2.00;;;;;;;;;;5015214;28;20085;-66
2023/11/26 06:24:50;;;;;;;4.70;1.97;;;;;;;;;;5017657;28;20049;-66
2023/11/26 06:27:17;;;;;;;4.10;2.00;;;;;;;;;;5021046;28;20420;-65
2023/11/26 06:29:44;;;;;;;3.03;2.00;;;;;;;;;;5018102;28;20060;-59
2023/11/26 06:32:18;;;;;;;3.87;1.93;;;;;;;;;;5017981;28;20053;-66
2023/11/26 06:34:46;;;;;;;3.30;2.07;;;;;;;;;;5020694;28;20558;-66
2023/11/26 06:37:20;;;;;;;3.00;2.00;;;;;;;;;;5013834;28;20135;-67
2023/11/26 06:39:47;;;;;;;4.40;2.30;;;;;;;;;;5018823;28;20049;-65
2023/11/26 06:42:16;;;;;;;3.40;1.90;;;;;;;;;;5021989;28;20734;-66
2023/11/26 06:44:50;;;;;;;3.53;2.40;;;;;;;;;;5023286;28;20056;-65
2023/11/26 06:47:17;;;;;;;3.67;2.03;;;;;;;;;;5021306;28;20049;-66
2023/11/26 06:49:58;;;;;;;2.57;2.00;;;;;;;;;;5021596;28;20079;-55
2023/11/26 06:52:25;;;;;;;2.60;1.63;;;;;;;;;;5018984;28;20068;-57
2023/11/26 06:54:59;;;;;;;4.87;2.00;;;;;;;;;;5022231;28;20058;-56
2023/11/26 06:57:26;;;;;;;3.67;2.13;;;;;;;;;;5016212;28;20595;-57
2023/11/26 07:00:00;;;;;;;2.43;1.90;;;;;;;;;;5021145;28;20475;-54
2023/11/26 07:02:27;;;;;;;2.47;1.90;;;;;;;;;;5021477;28;20065;-59
2023/11/26 07:04:54;;;;;;;4.17;2.20;;;;;;;;;;5015451;28;20050;-60
2023/11/26 07:07:28;;;;;;;3.33;2.10;;;;;;;;;;5017824;28;20470;-59
2023/11/26 07:09:57;;;;;;;7.00;2.67;;;;;;;;;;5017091;28;20061;-58
2023/11/26 07:12:29;;;;;;;3.27;2.20;;;;;;;;;;5001379;28;20082;-59
2023/11/26 07:15:04;;;;;;;3.57;2.40;;;;;;;;;;5017086;28;20057;-59
2023/11/26 07:17:32;;;;;;;3.53;2.20;;;;;;;;;;5034557;28;20929;-56
2023/11/26 07:19:59;;;;;;;3.67;2.17;;;;;;;;;;5017462;28;20157;-54
2023/11/26 07:22:33;;;;;;;4.83;1.90;;;;;;;;;;5016300;28;20158;-53
2023/11/26 07:25:00;;;;;;;2.87;2.20;;;;;;;;;;5019042;28;20556;-54
2023/11/26 07:27:35;;;;;;;2.97;2.10;;;;;;;;;;5020840;28;20053;-56
2023/11/26 07:30:03;;;;;;;5.87;2.23;;;;;;;;;;5020239;28;20607;-65
2023/11/26 07:32:30;;;;;;;8.87;4.60;;;;;;;;;;5020573;28;20152;-66
2023/11/26 07:35:06;;;;;;;4.03;2.37;;;;;;;;;;5021015;28;20140;-67
2023/11/26 07:37:33;;;;;;;2.63;1.97;;;;;;;;;;5015960;28;20431;-66
2023/11/26 07:40:07;;;;;;;2.37;1.93;;;;;;;;;;5019603;28;20053;-66
2023/11/26 07:42:34;;;;;;;3.63;2.30;;;;;;;;;;5018855;28;20233;-66
2023/11/26 07:45:06;;;;;;;2.10;1.77;;;;;;;;;;5024619;28;20432;-50
2023/11/26 07:47:40;;;;;;;5.50;2.27;;;;;;;;;;5017605;28;20053;-51
2023/11/26 07:50:20;;;;;;;4.30;2.40;;;;;;;;;;5020442;28;20058;-56
2023/11/26 07:52:54;;;;;;;3.47;2.10;;;;;;;;;;5018888;28;20049;-54
2023/11/26 07:55:21;;;;;;;7.50;2.37;;;;;;;;;;5018502;28;20041;-52
2023/11/26 07:57:49;;;;;;;4.33;1.90;;;;;;;;;;5015111;28;20778;-66
2023/11/26 08:00:23;;;;;;;3.33;2.13;;;;;;;;;;5015998;28;20599;-65
2023/11/26 08:02:50;;;;;;;2.00;1.63;;;;;;;;;;5018246;28;20064;-66
2023/11/26 08:05:24;;;;;;;2.43;1.70;;;;;;;;;;5013370;28;20057;-66
2023/11/26 08:07:52;;;;;;;2.90;2.20;;;;;;;;;;5018112;28;20056;-66
2023/11/26 08:10:20;;;;;;;2.83;1.90;;;;;;;;;;5017435;28;20138;-66
2023/11/26 08:12:55;;;;;;;2.97;1.83;;;;;;;;;;5013717;28;20073;-66
2023/11/26 08:15:24;;;;;;;2.87;1.80;;;;;;;;;;5016956;28;20134;-59
2023/11/26 08:17:58;;;;;;;2.23;2.00;;;;;;;;;;5016132;28;20057;-59
2023/11/26 08:20:25;;;;;;;9.10;2.40;;;;;;;;;;5010204;28;20745;-58
2023/11/26 08:22:53;;;;;;;3.43;2.23;;;;;;;;;;5008395;28;20118;-59
2023/11/26 08:25:29;;;;;;;2.70;2.00;;;;;;;;;;5010493;28;20143;-59
2023/11/26 08:27:58;;;;;;;3.83;2.30;;;;;;;;;;5026263;28;20045;-46
2023/11/26 08:30:41;;;;;;;3.30;2.10;;;;;;;;;;5014490;28;20061;-49
2023/11/26 08:33:09;;;;;;;3.47;2.20;;;;;;;;;;5003764;28;20076;-51
2023/11/26 08:35:43;;;;;;;2.80;1.77;;;;;;;;;;5010442;28;20067;-50
2023/11/26 08:38:12;;;;;;;2.27;1.80;;;;;;;;;;5017551;28;20240;-50
2023/11/26 08:40:42;;;;;;;2.63;1.80;;;;;;;;;;5009285;28;20905;-52
2023/11/26 08:43:19;;;;;;;4.20;1.67;;;;;;;;;;5014363;28;20084;-65
2023/11/26 08:45:46;;;;;;;3.20;1.87;;;;;;;;;;5015363;28;20516;-68
2023/11/26 08:48:14;;;;;;;3.43;2.20;;;;;;;;;;5012782;28;20064;-67
2023/11/26 08:50:54;;;;;;;3.83;2.00;;;;;;;;;;5009343;28;23861;-67
2023/11/26 08:53:23;;;;;;;6.50;2.63;;;;;;;;;;5014748;28;20085;-68
2023/11/26 08:55:57;;;;;;;4.17;2.33;;;;;;;;;;5014148;28;20638;-68
2023/11/26 08:58:31;;;;;;;3.80;2.60;;;;;;;;;;5012269;28;20057;-69
2023/11/26 09:00:59;;;;;;;4.10;2.40;;;;;;;;;;5010558;28;20085;-60
2023/11/26 09:03:27;;;;;;;3.40;2.30;;;;;;;;;;5012403;28;20058;-57
2023/11/26 09:06:01;;;;;;;3.97;2.40;;;;;;;;;;5010548;28;20550;-55
2023/11/26 09:08:28;;;;;;;3.27;2.20;;;;;;;;;;5011757;28;20057;-56
2023/11/26 09:10:56;;;;;;;;;;;;;;;;;;5012794;28;20049;-54
2023/11/26 09:13:30;;;;;;;4.20;2.13;;;;;;;;;;5009352;28;19924;-55
2023/11/26 09:15:59;;;;;;;4.07;2.67;;;;;;;;;;5010591;28;20336;-59
2023/11/26 09:18:37;;;;;;;5.37;2.90;;;;;;;;;;5009471;28;20053;-60
2023/11/26 09:21:04;;;;;;;4.13;2.90;;;;;;;;;;5003963;28;21014;-65
2023/11/26 09:23:36;;;;;;;3.40;2.40;;;;;;;;;;5012517;28;20065;-48
2023/11/26 09:26:10;;;;;;;4.50;2.63;;;;;;;;;;5009813;28;20061;-47
2023/11/26 09:28:38;;;;;;;7.87;2.60;;;;;;;;;;5011219;28;20108;-49
2023/11/26 09:31:08;;;;;;;3.70;2.43;;;;;;;;;;5016738;28;20428;-48
2023/11/26 09:33:49;;;;;;;5.07;1.70;;;;;;;;;;5006785;28;20056;-50
2023/11/26 09:36:17;;;;;;;9.27;2.10;;;;;;;;;;5014024;28;20159;-48
2023/11/26 09:38:51;;;;;;;6.37;2.00;;;;;;;;;;5015618;28;20190;-59
2023/11/26 09:41:18;;;;;;;;;;;;;;;;;;5017709;28;20135;-58
2023/11/26 09:43:47;;;;;;;6.35;2.90;;;;;;;;;;5028331;28;20043;-56
2023/11/26 09:46:21;;;;;;;6.13;3.00;;;;;;;;;;5016772;28;20107;-55
2023/11/26 09:48:48;;;;;;;3.83;2.60;;;;;;;;;;5009909;28;20157;-55
2023/11/26 09:51:29;;;;;;;3.60;2.20;;;;;;;;;;5019492;28;20104;-54
2023/11/26 09:53:57;;;;;;;4.17;2.77;;;;;;;;;;5009807;28;20769;-55
2023/11/26 09:56:31;;;;;;;5.00;2.90;;;;;;;;;;5028271;28;20145;-52
2023/11/26 09:58:59;;;;;;;2.83;2.20;;;;;;;;;;5013229;28;20053;-55
2023/11/26 10:01:26;;;;;;;;;;;;;;;;;;5013303;28;20709;-56
2023/11/26 10:04:04;;;;;;;4.40;1.90;;;;;;;;;;5014985;28;19925;-57
2023/11/26 10:06:32;;;;;;;4.30;2.70;;;;;;;;;;5016909;28;20060;-49
2023/11/26 10:09:19;;;;;;;2.47;1.90;;;;;;;;;;5017018;28;20424;-57
2023/11/26 10:11:46;;;;;;;3.83;2.50;;;;;;;;;;5009497;28;20053;-55
2023/11/26 10:14:21;;;;;;;7.83;2.07;;;;;;;;;;5013718;28;20057;-57
2023/11/26 10:16:48;;;;;;;3.07;2.20;;;;;;;;;;5016917;28;20045;-57
2023/11/26 10:19:24;;;;;;;4.10;2.17;;;;;;;;;;5011708;28;20064;-58
2023/11/26 10:21:59;;;;;;;5.70;2.40;;;;;;;;;;5013042;28;20072;-58
2023/11/26 10:24:30;;;;;;;3.13;2.23;;;;;;;;;;5018090;28;20062;-56
2023/11/26 10:27:12;;;;;;;4.70;2.37;;;;;;;;;;5022295;28;20060;-56
2023/11/26 10:29:42;;;;;;;4.47;2.40;;;;;;;;;;5021179;28;20094;-56
2023/11/26 10:32:17;;;;;;;5.80;4.20;;;;;;;;;;5022426;28;20045;-53
2023/11/26 10:34:54;;;;;;;4.97;2.80;;;;;;;;;;5014745;28;20065;-67
2023/11/26 10:37:28;;;;;;;3.43;2.30;;;;;;;;;;5031586;28;20056;-56
2023/11/26 10:40:02;;;;;;;3.20;2.05;;;;;;;;;;5020181;28;20053;-58
2023/11/26 10:42:36;;;;;;;3.20;2.17;;;;;;;;;;5017341;28;20061;-58
2023/11/26 10:45:04;;;;;;;8.93;4.65;;;;;;;;;;5016329;28;20053;-56
2023/11/26 10:47:32;;;;;;;7.45;4.55;;;;;;;;;;5020532;28;20119;-56
2023/11/26 10:50:14;;;;;;;6.28;3.97;;;;;;;;;;5012782;28;20811;-58
2023/11/26 10:52:50;;;;;;;7.07;3.95;;;;;;;;;;5017559;28;20084;-59
2023/11/26 10:55:31;;;;;;;9.50;3.40;;;;;;;;;;5010811;28;20089;-61
2023/11/26 10:58:12;;;;;;;8.65;4.50;;;;;;;;;;5017409;28;20500;-59
2023/11/26 11:00:48;;;;;;;54.63;22.25;;;;;;;;;;5013905;28;20049;-59
2023/11/26 11:03:17;;;;;;;16.70;8.65;;;;;;;;;;5016241;28;20051;-59
2023/11/26 11:05:52;;;;;;;5.63;3.05;;;;;;;;;;5019604;28;20492;-61
2023/11/26 11:08:22;;;;;;;4.80;2.92;;;;;;;;;;5020479;28;20145;-61
2023/11/26 11:10:49;;;;;;;7.30;2.70;;;;;;;;;;5012420;28;20103;-64
2023/11/26 11:13:24;;;;;;;8.55;3.20;;;;;;;;;;5020155;28;20138;-64
2023/11/26 11:15:51;;;;;;;6.32;3.58;;;;;;;;;;5012795;28;20061;-47
2023/11/26 11:18:28;;;;;;;5.35;3.72;;;;;;;;;;5019361;28;20061;-49
2023/11/26 11:21:05;;;;;;;6.82;3.08;;;;;;;;;;5013211;28;20053;-51
2023/11/26 11:23:40;;;;;;;5.57;3.10;;;;;;;;;;5017265;28;20111;-50
2023/11/26 11:26:08;;;;;;;7.60;3.60;;;;;;;;;;5017160;28;20972;-55
2023/11/26 11:28:44;;;;;;;9.57;3.65;;;;;;;;;;5014740;28;20772;-49
2023/11/26 11:31:12;;;;;;;6.50;3.35;;;;;;;;;;5018237;28;20069;-58
2023/11/26 11:34:05;;;;;;;13.93;5.95;;;;;;;;;;5014847;28;20140;-59
2023/11/26 11:36:42;;;;;;;13.80;5.93;;;;;;;;;;5007961;28;20057;-60
2023/11/26 11:39:17;;;;;;;10.57;4.35;;;;;;;;;;5017663;28;20053;-60
2023/11/26 11:42:00;;;;;;;32.33;10.85;;;;;;;;;;5016072;28;20057;-59
2023/11/26 11:44:28;;;;;;;11.05;3.58;;;;;;;;;;5018865;28;20053;-60
2023/11/26 11:47:05;;;;;;;8.82;3.58;;;;;;;;;;5016359;28;20057;-59
2023/11/26 11:49:51;;;;;;;11.23;3.95;;;;;;;;;;5017643;28;20144;-60
2023/11/26 11:52:26;;;;;;;12.32;4.50;;;;;;;;;;5014590;28;20140;-55
2023/11/26 11:54:54;;;;;;;;;;;;;;;;;;5017043;28;20056;-57
2023/11/26 11:57:29;;;;;;;9.23;3.85;;;;;;;;;;5014363;28;19929;-56
2023/11/26 11:59:56;;;;;;;13.65;4.47;;;;;;;;;;5016348;28;20064;-56
2023/11/26 12:02:34;;;;;;;8.50;4.00;;;;;;;;;;5017497;28;20054;-57
2023/11/26 12:05:03;;;;;;;10.13;4.07;;;;;;;;;;5014628;28;20524;-57
2023/11/26 12:07:37;;;;;;;9.35;4.05;;;;;;;;;;5016743;28;20068;-64
2023/11/26 12:10:05;;;;;;;11.98;4.78;;;;;;;;;;5015267;28;20053;-60
2023/11/26 12:12:35;;;;;;;7.78;4.10;;;;;;;;;;5015810;28;20058;-58
2023/11/26 12:15:09;;;;;;;8.85;4.15;;;;;;;;;;5014853;28;20429;-59
2023/11/26 12:17:36;;;;;;;;;;;;;;;;;;5014252;28;20053;-58
2023/11/26 12:20:11;;;;;;;11.98;4.95;;;;;;;;;;5012645;28;19936;-59
2023/11/26 12:22:43;;;;;;;15.15;9.65;;;;;;;;;;5012904;28;20053;-60
2023/11/26 12:25:21;;;;;;;12.20;5.97;;;;;;;;;;5012483;28;20458;-56
2023/11/26 12:28:02;;;;;;;7.93;4.85;;;;;;;;;;5019879;28;20107;-56
2023/11/26 12:30:38;;;;;;;13.63;7.90;;;;;;;;;;5028680;28;20057;-58
2023/11/26 12:33:07;;;;;;;12.88;7.53;;;;;;;;;;5030397;28;20169;-56
2023/11/26 12:35:35;;;;;;;10.13;5.13;;;;;;;;;;5017208;28;20052;-58
2023/11/26 12:38:09;;;;;;;12.27;4.97;;;;;;;;;;5017303;28;20053;-58
2023/11/26 12:40:36;;;;;;;14.35;5.28;;;;;;;;;;5016689;28;20451;-58
2023/11/26 12:43:11;;;;;;;9.95;4.20;;;;;;;;;;5033534;28;20455;-59
2023/11/26 12:45:39;;;;;;;9.85;4.40;;;;;;;;;;5020708;28;20060;-59
2023/11/26 12:48:13;;;;;;;9.13;4.70;;;;;;;;;;5018690;28;20053;-59
2023/11/26 12:50:41;;;;;;;;;;;;;;;;;;5019069;28;20053;-60
2023/11/26 12:53:17;;;;;;;5.65;3.45;;;;;;;;;;5015562;28;19924;-59
2023/11/26 12:55:51;;;;;;;9.43;3.65;;;;;;;;;;5016819;28;20053;-58
2023/11/26 12:58:18;;;;;;;;;;;;;;;;;;5013731;28;20053;-56
2023/11/26 13:00:52;;;;;;;10.43;4.45;;;;;;;;;;5014570;28;19975;-58
2023/11/26 13:03:20;;;;;;;;;;;;;;;;;;5013552;28;20049;-58
2023/11/26 13:05:48;;;;;;;7.75;4.55;;;;;;;;;;5016658;28;19941;-58
2023/11/26 13:08:23;;;;;;;8.75;4.18;;;;;;;;;;5016554;28;20127;-57
2023/11/26 13:10:52;;;;;;;7.95;4.10;;;;;;;;;;5017470;28;20812;-57
2023/11/26 13:13:24;;;;;;;10.75;4.90;;;;;;;;;;5032275;28;20049;-57
2023/11/26 13:15:59;;;;;;;9.15;4.10;;;;;;;;;;5017443;28;20492;-58
2023/11/26 13:18:27;;;;;;;9.73;4.10;;;;;;;;;;5017022;28;20057;-58
2023/11/26 13:21:04;;;;;;;7.72;3.67;;;;;;;;;;5016430;28;20060;-59
2023/11/26 13:23:31;;;;;;;8.20;3.90;;;;;;;;;;5016628;28;20200;-59
2023/11/26 13:26:00;;;;;;;8.82;3.97;;;;;;;;;;5015607;28;20057;-59
2023/11/26 13:28:34;;;;;;;11.20;4.75;;;;;;;;;;5016749;28;20103;-59
2023/11/26 13:31:01;;;;;;;13.00;4.80;;;;;;;;;;5015291;28;20050;-59
2023/11/26 13:33:35;;;;;;;13.77;5.28;;;;;;;;;;5016194;28;20076;-59
2023/11/26 13:36:03;;;;;;;10.30;4.90;;;;;;;;;;5019733;28;20816;-59
2023/11/26 13:38:30;;;;;;;;;;;;;;;;;;5016115;28;20452;-60
2023/11/26 13:41:04;;;;;;;10.07;4.68;;;;;;;;;;5017641;28;19932;-57
2023/11/26 13:43:32;;;;;;;11.65;4.50;;;;;;;;;;5015909;28;20057;-58
2023/11/26 13:45:59;;;;;;;11.38;4.38;;;;;;;;;;5014064;28;20588;-58
2023/11/26 13:48:36;;;;;;;10.77;4.40;;;;;;;;;;5015189;28;20143;-57
2023/11/26 13:51:11;;;;;;;13.00;5.25;;;;;;;;;;5016705;28;20053;-63
2023/11/26 13:53:45;;;;;;;10.23;4.32;;;;;;;;;;5014400;28;20079;-57
2023/11/26 13:56:12;;;;;;;10.20;5.05;;;;;;;;;;5015511;28;20053;-57
2023/11/26 13:58:41;;;;;;;12.68;5.45;;;;;;;;;;5017186;28;20061;-55
2023/11/26 14:01:16;;;;;;;12.35;5.05;;;;;;;;;;5014034;28;20484;-56
2023/11/26 14:03:43;;;;;;;9.00;4.45;;;;;;;;;;5009991;28;21652;-56
2023/11/26 14:06:12;;;;;;;8.52;4.45;;;;;;;;;;5014105;28;20060;-57
2023/11/26 14:08:46;;;;;;;13.10;4.65;;;;;;;;;;5013521;28;20045;-57
2023/11/26 14:11:16;;;;;;;;;;;;;;;;;;5013918;28;20064;-58
2023/11/26 14:13:50;;;;;;;11.75;4.63;;;;;;;;;;5014561;28;19921;-57
2023/11/26 14:16:17;;;;;;;;;;;;;;;;;;4999202;28;20053;-58
2023/11/26 14:18:51;;;;;;;12.23;4.97;;;;;;;;;;5013893;28;19936;-57
2023/11/26 14:21:21;;;;;;;16.15;5.78;;;;;;;;;;5006635;28;20056;-58
2023/11/26 14:23:55;;;;;;;12.75;3.75;;;;;;;;;;5008558;28;20048;-58
2023/11/26 14:26:22;;;;;;;;;;;;;;;;;;5009826;28;20567;-57
2023/11/26 14:28:50;;;;;;;10.32;4.25;;;;;;;;;;5012668;28;19951;-59
2023/11/26 14:31:24;;;;;;;10.93;4.15;;;;;;;;;;5008610;28;20505;-58
2023/11/26 14:33:53;;;;;;;8.82;4.00;;;;;;;;;;5010543;28;20718;-59
2023/11/26 14:36:27;;;;;;;8.95;4.53;;;;;;;;;;5015075;28;20057;-57
2023/11/26 14:38:58;;;;;;;13.80;5.13;;;;;;;;;;5015565;28;20068;-50
2023/11/26 14:41:25;;;;;;;12.27;4.83;;;;;;;;;;5011164;28;20049;-63
2023/11/26 14:43:59;;;;;;;12.93;4.78;;;;;;;;;;5015160;28;20076;-64
2023/11/26 14:46:26;;;;;;;13.77;5.47;;;;;;;;;;5015085;28;20115;-63
2023/11/26 14:48:54;;;;;;;;;;;;;;;;;;5015581;28;20152;-63
2023/11/26 14:51:34;;;;;;;12.52;5.32;;;;;;;;;;4975883;28;20344;-63
2023/11/26 14:54:02;;;;;;;10.87;4.83;;;;;;;;;;4977847;28;20141;-63
2023/11/26 14:56:36;;;;;;;11.17;5.60;;;;;;;;;;4973913;28;20473;-58
2023/11/26 14:59:04;;;;;;;14.83;5.20;;;;;;;;;;4978554;28;20633;-58
2023/11/26 15:01:32;;;;;;;15.90;6.13;;;;;;;;;;4979729;28;20090;-60
2023/11/26 15:04:06;;;;;;;10.20;4.53;;;;;;;;;;4978370;28;20129;-58
2023/11/26 15:06:33;;;;;;;17.07;5.10;;;;;;;;;;4983181;28;20050;-58
2023/11/26 15:09:07;;;;;;;11.10;5.33;;;;;;;;;;4983456;28;20062;-57
2023/11/26 15:11:35;;;;;;;10.47;4.77;;;;;;;;;;4977132;28;20104;-58
2023/11/26 15:14:06;;;;;;;12.55;5.18;;;;;;;;;;4976051;28;20090;-49
2023/11/26 15:16:40;;;;;;;;;;;;;;;;;;4979883;28;20067;-60